createdAt,value
2022-07-31T00:00:28.669Z,7.78
2022-07-31T00:02:56.781Z,7.13
2022-07-31T00:05:25.739Z,8.00
2022-07-31T00:07:55.042Z,8.15
2022-07-31T00:10:23.271Z,7.82
2022-07-31T00:12:51.343Z,7.90
2022-07-31T00:15:21.515Z,7.97
2022-07-31T00:17:50.257Z,8.55
2022-07-31T00:20:20.004Z,9.00
2022-07-31T00:22:49.245Z,8.32
2022-07-31T00:25:18.858Z,8.00
2022-07-31T00:27:47.409Z,8.15
2022-07-31T00:30:17.022Z,8.18
2022-07-31T00:32:46.877Z,8.20
2022-07-31T00:35:17.296Z,7.80
2022-07-31T00:37:45.762Z,8.88
2022-07-31T00:40:15.843Z,8.00
2022-07-31T00:42:44.666Z,7.68
2022-07-31T00:45:13.737Z,9.35
2022-07-31T00:47:42.251Z,8.60
2022-07-31T00:50:13.113Z,8.50
2022-07-31T00:52:43.135Z,8.50
2022-07-31T00:55:11.446Z,8.68
2022-07-31T00:57:40.841Z,8.50
2022-07-31T01:00:10.771Z,8.55
2022-07-31T01:02:46.446Z,7.97
2022-07-31T01:05:18.976Z,8.63
2022-07-31T01:07:48.922Z,8.35
2022-07-31T01:10:34.520Z,8.43
2022-07-31T01:13:09.301Z,8.80
2022-07-31T01:15:39.087Z,7.70
2022-07-31T01:18:08.994Z,7.70
2022-07-31T01:20:43.299Z,8.32
2022-07-31T01:23:37.111Z,7.63
2022-07-31T01:26:35.607Z,8.77
2022-07-31T01:29:16.988Z,8.30
2022-07-31T01:31:49.437Z,8.10
2022-07-31T01:34:26.519Z,8.35
2022-07-31T01:37:02.268Z,8.35
2022-07-31T01:39:37.200Z,7.85
2022-07-31T01:42:08.746Z,8.40
2022-07-31T01:44:44.336Z,8.48
2022-07-31T01:47:18.090Z,7.75
2022-07-31T01:49:48.078Z,7.88
2022-07-31T01:52:16.769Z,8.43
2022-07-31T01:54:46.291Z,8.57
2022-07-31T01:57:18.944Z,8.75
2022-07-31T01:59:54.910Z,7.93
2022-07-31T02:02:43.667Z,8.30
2022-07-31T02:05:13.420Z,8.73
2022-07-31T02:07:43.466Z,8.45
2022-07-31T02:10:15.352Z,8.73
2022-07-31T02:12:45.808Z,9.00
2022-07-31T02:15:17.520Z,8.98
2022-07-31T02:17:48.189Z,9.20
2022-07-31T02:20:26.303Z,7.95
2022-07-31T02:22:57.206Z,8.88
2022-07-31T02:25:25.995Z,8.82
2022-07-31T02:27:58.579Z,8.80
2022-07-31T02:30:38.402Z,9.10
2022-07-31T02:33:11.105Z,9.13
2022-07-31T02:35:44.036Z,8.55
2022-07-31T02:38:23.518Z,8.43
2022-07-31T02:40:57.495Z,8.30
2022-07-31T02:43:27.419Z,8.88
2022-07-31T02:45:59.604Z,8.55
2022-07-31T02:48:28.644Z,9.05
2022-07-31T02:51:01.015Z,9.32
2022-07-31T02:53:30.794Z,9.07
2022-07-31T02:56:04.487Z,8.95
2022-07-31T02:58:39.534Z,7.93
2022-07-31T03:01:09.735Z,8.80
2022-07-31T03:03:39.160Z,8.00
2022-07-31T03:06:07.747Z,8.50
2022-07-31T03:08:36.128Z,8.57
2022-07-31T03:11:06.463Z,9.02
2022-07-31T03:13:37.799Z,8.43
2022-07-31T03:16:11.835Z,9.07
2022-07-31T03:18:41.110Z,8.68
2022-07-31T03:21:11.303Z,8.35
2022-07-31T03:23:40.221Z,8.77
2022-07-31T03:26:15.230Z,8.88
2022-07-31T03:28:43.711Z,8.13
2022-07-31T03:31:13.281Z,9.55
2022-07-31T03:33:42.707Z,8.68
2022-07-31T03:36:10.965Z,9.13
2022-07-31T03:38:42.613Z,9.70
2022-07-31T03:41:26.060Z,9.00
2022-07-31T03:43:55.404Z,9.63
2022-07-31T03:46:26.044Z,8.57
2022-07-31T03:48:55.166Z,9.20
2022-07-31T03:51:26.718Z,9.57
2022-07-31T03:53:55.540Z,9.05
2022-07-31T03:56:46.355Z,8.80
2022-07-31T03:59:18.007Z,9.02
2022-07-31T04:01:57.801Z,9.40
2022-07-31T04:04:45.256Z,9.73
2022-07-31T04:07:13.386Z,10.18
2022-07-31T04:09:41.598Z,10.27
2022-07-31T04:12:11.788Z,10.43
2022-07-31T04:14:39.864Z,10.30
2022-07-31T04:17:10.233Z,10.88
2022-07-31T04:19:38.338Z,11.73
2022-07-31T04:22:07.317Z,10.82
2022-07-31T04:24:35.706Z,10.25
2022-07-31T04:27:22.698Z,10.00
2022-07-31T04:29:50.920Z,10.27
2022-07-31T04:32:24.082Z,9.85
2022-07-31T04:34:56.103Z,10.02
2022-07-31T04:37:24.137Z,9.70
2022-07-31T04:39:52.401Z,8.52
2022-07-31T04:42:21.364Z,8.68
2022-07-31T04:44:49.397Z,8.95
2022-07-31T04:47:17.490Z,9.73
2022-07-31T04:49:51.022Z,8.70
2022-07-31T04:52:19.475Z,8.75
2022-07-31T04:54:49.811Z,8.82
2022-07-31T04:57:21.807Z,8.75
2022-07-31T04:59:59.381Z,8.52
2022-07-31T05:02:32.428Z,8.13
2022-07-31T05:05:02.222Z,8.23
2022-07-31T05:07:40.591Z,7.78
2022-07-31T05:10:34.315Z,7.72
2022-07-31T05:13:03.111Z,7.57
2022-07-31T05:15:32.951Z,6.63
2022-07-31T05:18:01.160Z,7.05
2022-07-31T05:20:53.070Z,6.70
2022-07-31T05:23:28.590Z,6.45
2022-07-31T05:26:15.455Z,6.60
2022-07-31T05:28:44.222Z,6.70
2022-07-31T05:31:14.924Z,6.80
2022-07-31T05:33:43.389Z,6.20
2022-07-31T05:36:13.510Z,6.15
2022-07-31T05:38:41.891Z,5.88
2022-07-31T05:41:29.933Z,5.70
2022-07-31T05:43:58.003Z,5.85
2022-07-31T05:46:30.450Z,5.50
2022-07-31T05:48:58.600Z,5.30
2022-07-31T05:51:28.042Z,5.10
2022-07-31T05:53:56.251Z,5.63
2022-07-31T05:56:42.804Z,4.97
2022-07-31T05:59:12.139Z,5.20
2022-07-31T06:01:41.421Z,5.43
2022-07-31T06:04:09.856Z,4.95
2022-07-31T06:06:43.707Z,5.03
2022-07-31T06:09:12.823Z,4.70
2022-07-31T06:11:44.683Z,5.20
2022-07-31T06:14:13.476Z,5.35
2022-07-31T06:16:59.852Z,5.70
2022-07-31T06:23:32.101Z,5.47
2022-07-31T06:26:15.703Z,6.00
2022-07-31T06:28:48.682Z,4.85
2022-07-31T06:31:19.050Z,5.68
2022-07-31T06:33:48.461Z,5.68
2022-07-31T06:36:18.366Z,5.68
2022-07-31T06:38:58.784Z,5.80
2022-07-31T06:41:49.905Z,5.20
2022-07-31T06:44:30.715Z,5.60
2022-07-31T06:47:18.348Z,6.28
2022-07-31T06:50:08.315Z,5.43
2022-07-31T06:52:50.714Z,5.70
2022-07-31T06:55:20.270Z,5.40
2022-07-31T06:57:48.330Z,5.50
2022-07-31T07:00:20.425Z,5.38
2022-07-31T07:02:51.805Z,6.03
2022-07-31T07:05:21.615Z,5.43
2022-07-31T07:07:53.112Z,5.95
2022-07-31T07:10:23.759Z,6.47
2022-07-31T07:13:00.953Z,6.47
2022-07-31T07:15:33.574Z,6.32
2022-07-31T07:18:01.705Z,5.88
2022-07-31T07:20:36.215Z,7.05
2022-07-31T07:23:04.500Z,6.75
2022-07-31T07:25:54.135Z,6.40
2022-07-31T07:28:29.290Z,7.28
2022-07-31T07:31:02.023Z,7.80
2022-07-31T07:33:40.206Z,7.40
2022-07-31T07:36:24.189Z,7.53
2022-07-31T07:38:58.980Z,8.18
2022-07-31T07:41:28.396Z,7.95
2022-07-31T07:43:56.552Z,7.28
2022-07-31T07:46:28.098Z,7.95
2022-07-31T07:49:02.339Z,8.25
2022-07-31T07:51:37.029Z,8.25
2022-07-31T07:54:37.271Z,7.65
2022-07-31T07:57:25.110Z,8.18
2022-07-31T08:00:13.621Z,8.82
2022-07-31T08:03:47.131Z,8.20
2022-07-31T08:05:35.508Z,9.38
2022-07-31T08:08:05.952Z,8.77
2022-07-31T08:11:04.886Z,8.45
2022-07-31T08:13:50.124Z,9.50
2022-07-31T08:16:41.457Z,8.60
2022-07-31T08:19:09.963Z,8.57
2022-07-31T08:21:39.326Z,9.30
2022-07-31T08:24:07.851Z,9.95
2022-07-31T08:26:50.006Z,8.75
2022-07-31T08:29:27.363Z,9.45
2022-07-31T08:32:08.825Z,9.85
2022-07-31T08:34:57.101Z,8.85
2022-07-31T08:37:57.574Z,9.10
2022-07-31T08:40:13.757Z,8.10
2022-07-31T08:42:41.996Z,8.43
2022-07-31T08:45:12.431Z,8.43
2022-07-31T08:47:49.122Z,8.52
2022-07-31T08:50:24.453Z,8.07
2022-07-31T08:52:55.951Z,8.57
2022-07-31T08:55:55.952Z,7.75
2022-07-31T08:58:26.453Z,7.68
2022-07-31T09:00:56.446Z,7.60
2022-07-31T09:03:26.231Z,7.18
2022-07-31T09:06:03.049Z,7.97
2022-07-31T09:08:33.564Z,7.95
2022-07-31T09:11:06.165Z,8.13
2022-07-31T09:13:39.766Z,7.88
2022-07-31T09:16:32.168Z,7.85
2022-07-31T09:19:02.954Z,7.88
2022-07-31T09:21:52.055Z,8.32
2022-07-31T09:24:32.134Z,7.05
2022-07-31T09:27:07.021Z,7.40
2022-07-31T09:29:37.351Z,7.70
2022-07-31T09:32:15.924Z,6.72
2022-07-31T09:35:09.098Z,7.18
2022-07-31T09:37:37.486Z,6.85
2022-07-31T09:40:56.769Z,7.00
2022-07-31T09:43:52.014Z,6.80
2022-07-31T09:46:21.020Z,8.13
2022-07-31T09:48:59.899Z,8.48
2022-07-31T09:51:39.602Z,7.63
2022-07-31T09:54:09.930Z,7.82
2022-07-31T09:57:14.245Z,7.80
2022-07-31T09:59:45.735Z,7.80
2022-07-31T10:02:16.442Z,8.13
2022-07-31T10:04:50.910Z,7.57
2022-07-31T10:07:32.507Z,8.27
2022-07-31T10:10:23.970Z,8.48
2022-07-31T10:13:07.116Z,8.93
2022-07-31T10:15:38.467Z,8.15
2022-07-31T10:18:36.393Z,7.82
2022-07-31T10:21:18.086Z,8.70
2022-07-31T10:24:17.475Z,8.02
2022-07-31T10:27:10.843Z,8.80
2022-07-31T10:29:37.180Z,8.88
2022-07-31T10:32:07.734Z,7.90
2022-07-31T10:34:39.814Z,8.05
2022-07-31T10:37:37.647Z,8.50
2022-07-31T10:40:37.754Z,8.73
2022-07-31T10:43:19.584Z,8.00
2022-07-31T10:46:05.182Z,7.70
2022-07-31T10:48:53.281Z,7.57
2022-07-31T10:51:47.946Z,7.63
2022-07-31T10:54:42.031Z,8.23
2022-07-31T10:57:30.878Z,7.72
2022-07-31T11:00:20.405Z,7.55
2022-07-31T11:02:59.282Z,7.97
2022-07-31T11:06:01.587Z,8.38
2022-07-31T11:08:46.878Z,7.38
2022-07-31T11:11:39.239Z,7.60
2022-07-31T11:14:33.671Z,7.63
2022-07-31T11:18:23.221Z,7.28
2022-07-31T11:20:43.199Z,6.40
2022-07-31T11:23:15.260Z,6.07
2022-07-31T11:25:44.580Z,6.13
2022-07-31T11:28:16.143Z,6.18
2022-07-31T11:30:52.467Z,5.75
2022-07-31T11:33:31.673Z,7.20
2022-07-31T11:36:12.266Z,6.80
2022-07-31T11:38:41.648Z,6.82
2022-07-31T11:41:10.544Z,6.47
2022-07-31T11:43:46.883Z,6.38
2022-07-31T11:46:16.567Z,6.47
2022-07-31T11:48:45.738Z,6.57
2022-07-31T11:51:19.600Z,6.25
2022-07-31T11:53:56.657Z,6.78
2022-07-31T11:56:27.811Z,7.32
2022-07-31T11:58:58.824Z,6.97
2022-07-31T12:01:29.062Z,6.85
2022-07-31T12:04:07.480Z,7.10
2022-07-31T12:06:37.808Z,7.13
2022-07-31T12:09:06.095Z,7.10
2022-07-31T12:11:34.253Z,6.60
2022-07-31T12:14:03.668Z,7.10
2022-07-31T12:16:41.304Z,7.15
2022-07-31T12:19:09.463Z,6.75
2022-07-31T12:21:40.566Z,6.80
2022-07-31T12:24:12.023Z,7.38
2022-07-31T12:26:44.028Z,7.25
2022-07-31T12:29:14.213Z,7.35
2022-07-31T12:31:46.428Z,7.70
2022-07-31T12:34:15.003Z,7.30
2022-07-31T12:36:43.241Z,7.43
2022-07-31T12:39:13.117Z,7.57
2022-07-31T12:41:44.416Z,7.63
2022-07-31T12:44:14.890Z,7.05
2022-07-31T12:46:49.815Z,6.80
2022-07-31T12:49:17.955Z,7.07
2022-07-31T12:51:47.269Z,7.10
2022-07-31T12:54:16.643Z,7.03
2022-07-31T12:56:46.677Z,7.68
2022-07-31T12:59:16.199Z,7.43
2022-07-31T13:01:44.537Z,7.18
2022-07-31T13:04:18.562Z,8.02
2022-07-31T13:06:52.072Z,7.15
2022-07-31T13:09:20.296Z,7.22
2022-07-31T13:11:49.330Z,7.53
2022-07-31T13:14:21.238Z,8.35
2022-07-31T13:16:52.082Z,8.13
2022-07-31T13:19:20.777Z,8.00
2022-07-31T13:21:50.424Z,7.63
2022-07-31T13:24:19.846Z,8.20
2022-07-31T13:26:48.135Z,8.40
2022-07-31T13:29:17.041Z,8.05
2022-07-31T13:31:46.702Z,8.25
2022-07-31T13:34:14.807Z,8.35
2022-07-31T13:36:42.995Z,8.20
2022-07-31T13:39:13.377Z,8.98
2022-07-31T13:41:41.904Z,8.63
2022-07-31T13:44:10.331Z,9.13
2022-07-31T13:46:38.663Z,9.38
2022-07-31T13:49:10.669Z,10.25
2022-07-31T13:51:39.599Z,9.65
2022-07-31T13:54:08.631Z,9.65
2022-07-31T13:56:42.012Z,10.75
2022-07-31T13:59:11.620Z,11.27
2022-07-31T14:02:04.241Z,11.10
2022-07-31T14:04:32.304Z,11.98
2022-07-31T14:07:04.345Z,11.48
2022-07-31T14:09:35.342Z,10.75
2022-07-31T14:12:04.662Z,10.40
2022-07-31T14:22:16.486Z,10.45
2022-07-31T14:24:50.808Z,11.02
2022-07-31T14:27:21.075Z,9.68
2022-07-31T14:29:49.187Z,10.18
2022-07-31T14:32:17.301Z,9.02
2022-07-31T14:34:45.356Z,9.57
2022-07-31T14:37:13.475Z,7.47
2022-07-31T14:39:43.323Z,7.40
2022-07-31T14:42:12.348Z,7.22
2022-07-31T14:44:42.127Z,6.63
2022-07-31T14:47:10.798Z,6.68
2022-07-31T14:50:09.377Z,7.28
2022-07-31T14:52:27.933Z,6.68
2022-07-31T14:54:59.218Z,7.00
2022-07-31T14:57:27.460Z,6.53
2022-07-31T14:59:55.888Z,5.55
2022-07-31T15:02:24.027Z,5.97
2022-07-31T15:04:52.188Z,5.57
2022-07-31T15:07:39.767Z,6.03
2022-07-31T15:10:12.212Z,5.70
2022-07-31T15:12:40.275Z,5.13
2022-07-31T15:15:09.492Z,4.10
2022-07-31T15:17:37.670Z,3.85
2022-07-31T15:20:06.535Z,3.47
2022-07-31T15:22:34.634Z,4.03
2022-07-31T15:25:02.886Z,3.78
2022-07-31T15:27:32.406Z,3.92
2022-07-31T15:30:06.682Z,3.80
2022-07-31T15:32:37.186Z,3.40
2022-07-31T15:35:06.936Z,3.55
2022-07-31T15:37:36.529Z,3.40
2022-07-31T15:40:06.724Z,3.40
2022-07-31T15:42:40.436Z,2.88
2022-07-31T15:45:13.264Z,3.10
2022-07-31T15:47:42.262Z,3.45
2022-07-31T15:50:12.383Z,3.20
2022-07-31T15:52:41.635Z,3.35
2022-07-31T15:55:10.579Z,3.97
2022-07-31T15:57:40.084Z,4.00
2022-07-31T16:00:10.740Z,3.50
2022-07-31T16:02:39.205Z,3.88
2022-07-31T16:05:11.815Z,3.60
2022-07-31T16:08:31.723Z,3.67
2022-07-31T16:10:39.139Z,3.95
2022-07-31T16:13:08.626Z,4.38
2022-07-31T16:15:36.743Z,4.20
2022-07-31T16:18:06.754Z,4.28
2022-07-31T16:20:37.306Z,4.57
2022-07-31T16:23:05.310Z,3.70
2022-07-31T16:25:35.328Z,4.30
2022-07-31T16:28:04.213Z,4.22
2022-07-31T16:30:33.875Z,4.80
2022-07-31T16:33:01.901Z,4.82
2022-07-31T16:35:30.081Z,5.22
2022-07-31T16:40:43.836Z,5.50
2022-07-31T16:43:49.334Z,5.47
2022-07-31T16:46:01.303Z,6.10
2022-07-31T16:48:29.320Z,6.35
2022-07-31T16:50:57.560Z,6.15
2022-07-31T16:54:11.170Z,6.30
2022-07-31T16:56:15.538Z,7.00
2022-07-31T16:58:44.764Z,7.63
2022-07-31T17:01:54.205Z,8.60
2022-07-31T17:04:04.408Z,9.98
2022-07-31T17:06:36.300Z,9.73
2022-07-31T17:09:15.329Z,10.40
2022-07-31T17:11:47.778Z,11.30
2022-07-31T17:14:16.424Z,10.25
2022-07-31T17:16:48.895Z,10.68
2022-07-31T17:19:42.333Z,11.35
2022-07-31T17:22:07.213Z,11.48
2022-07-31T17:24:37.442Z,12.45
2022-07-31T17:27:08.852Z,11.75
2022-07-31T17:29:38.172Z,10.75
2022-07-31T17:32:08.207Z,11.30
2022-07-31T17:34:39.804Z,11.65
2022-07-31T17:37:08.513Z,11.80
2022-07-31T17:39:37.192Z,11.93
2022-07-31T17:42:05.796Z,11.75
2022-07-31T17:44:34.140Z,11.30
2022-07-31T17:47:03.417Z,11.43
2022-07-31T17:49:34.916Z,11.82
2022-07-31T17:52:03.304Z,11.98
2022-07-31T17:54:32.672Z,14.40
2022-07-31T17:57:01.155Z,12.93
2022-07-31T17:59:29.655Z,13.02
2022-07-31T18:02:00.205Z,14.45
2022-07-31T18:04:28.772Z,14.77
2022-07-31T18:06:59.015Z,12.60
2022-07-31T18:09:27.480Z,12.05
2022-07-31T18:11:56.162Z,13.45
2022-07-31T18:14:24.983Z,14.45
2022-07-31T18:16:53.467Z,13.93
2022-07-31T18:19:22.513Z,12.15
2022-07-31T18:21:51.059Z,12.25
2022-07-31T18:24:21.177Z,11.77
2022-07-31T18:26:49.495Z,12.20
2022-07-31T18:29:17.843Z,14.82
2022-07-31T18:31:46.219Z,13.60
2022-07-31T18:34:15.377Z,13.50
2022-07-31T18:36:43.720Z,13.18
2022-07-31T18:39:12.305Z,13.52
2022-07-31T18:41:46.805Z,14.25
2022-07-31T18:44:17.115Z,14.25
2022-07-31T18:46:45.256Z,13.90
2022-07-31T18:50:58.846Z,16.05
2022-07-31T18:52:02.603Z,15.63
2022-07-31T18:54:31.099Z,15.25
2022-07-31T18:57:00.736Z,16.10
2022-07-31T18:59:28.821Z,10.95
2022-07-31T19:01:57.369Z,9.70
2022-07-31T19:04:25.491Z,10.30
2022-07-31T19:06:54.549Z,12.50
2022-07-31T19:09:23.943Z,11.50
2022-07-31T19:11:52.098Z,9.73
2022-07-31T19:14:28.151Z,9.98
2022-07-31T19:16:59.879Z,9.35
2022-07-31T19:19:30.372Z,9.63
2022-07-31T19:22:08.399Z,9.63
2022-07-31T19:24:36.521Z,9.63
2022-07-31T19:27:04.815Z,9.38
2022-07-31T19:29:34.580Z,8.60
2022-07-31T19:32:03.127Z,8.40
2022-07-31T19:34:31.393Z,9.20
2022-07-31T19:36:59.546Z,9.98
2022-07-31T19:39:27.647Z,9.35
2022-07-31T19:42:10.904Z,9.80
2022-07-31T19:44:43.285Z,9.07
2022-07-31T19:47:11.372Z,8.88
2022-07-31T19:49:41.254Z,9.18
2022-07-31T19:52:09.760Z,9.00
2022-07-31T19:54:38.082Z,8.00
2022-07-31T19:57:06.554Z,7.53
2022-07-31T19:59:34.719Z,7.22
2022-07-31T20:02:04.591Z,7.13
2022-07-31T20:04:32.824Z,6.47
2022-07-31T20:07:00.987Z,7.18
2022-07-31T20:09:30.623Z,7.60
2022-07-31T20:11:58.804Z,7.05
2022-07-31T20:14:26.946Z,6.70
2022-07-31T20:16:55.105Z,6.38
2022-07-31T20:19:24.588Z,7.03
2022-07-31T20:21:52.720Z,6.38
2022-07-31T20:24:20.712Z,5.72
2022-07-31T20:26:57.608Z,6.32
2022-07-31T20:29:26.806Z,5.97
2022-07-31T20:31:54.819Z,5.60
2022-07-31T20:34:26.737Z,5.60
2022-07-31T20:36:55.920Z,5.32
2022-07-31T20:39:33.471Z,6.05
2022-07-31T20:42:03.377Z,6.63
2022-07-31T20:44:31.747Z,7.20
2022-07-31T20:46:59.807Z,6.85
2022-07-31T20:49:35.806Z,6.60
2022-07-31T20:52:04.964Z,6.90
2022-07-31T20:54:34.504Z,7.20
2022-07-31T20:57:03.060Z,7.05
2022-07-31T20:59:31.430Z,5.43
2022-07-31T21:01:59.607Z,5.57
2022-07-31T21:04:28.944Z,5.88
2022-07-31T21:06:57.049Z,6.20
2022-07-31T21:09:25.200Z,6.25
2022-07-31T21:11:53.690Z,6.57
2022-07-31T21:14:21.760Z,6.40
2022-07-31T21:16:49.922Z,6.80
2022-07-31T21:19:19.940Z,7.40
2022-07-31T21:21:50.896Z,6.65
2022-07-31T21:24:19.461Z,6.43
2022-07-31T21:26:47.817Z,8.20
2022-07-31T21:29:19.612Z,7.20
2022-07-31T21:31:48.747Z,6.45
2022-07-31T21:34:18.708Z,6.43
2022-07-31T21:36:50.333Z,6.97
2022-07-31T21:39:19.687Z,6.38
2022-07-31T21:41:48.126Z,6.90
2022-07-31T21:44:17.005Z,6.53
2022-07-31T21:46:51.573Z,6.50
2022-07-31T21:49:21.341Z,6.43
2022-07-31T21:51:51.509Z,7.15
2022-07-31T21:54:19.541Z,6.70
2022-07-31T21:56:47.600Z,7.20
2022-07-31T21:59:16.241Z,6.65
2022-07-31T22:01:57.983Z,7.28
2022-07-31T22:04:34.826Z,6.78
2022-07-31T22:07:21.850Z,6.60
2022-07-31T22:09:49.994Z,6.30
2022-07-31T22:12:17.994Z,7.32
2022-07-31T22:14:46.273Z,7.28
2022-07-31T22:17:14.319Z,7.60
2022-07-31T22:19:47.473Z,5.78
2022-07-31T22:30:18.755Z,6.15
2022-07-31T22:32:51.668Z,6.50
2022-07-31T22:35:22.428Z,6.30
2022-07-31T22:37:51.390Z,7.03
2022-07-31T22:40:21.352Z,7.30
2022-07-31T22:42:56.503Z,6.50
2022-07-31T22:45:27.462Z,7.35
2022-07-31T22:47:57.645Z,6.30
2022-07-31T22:50:26.422Z,6.88
2022-07-31T22:52:54.477Z,6.40
2022-07-31T22:55:22.828Z,7.07
2022-07-31T22:57:50.977Z,6.85
2022-07-31T23:00:19.251Z,6.88
2022-07-31T23:02:48.957Z,6.97
2022-07-31T23:05:17.124Z,7.47
2022-07-31T23:07:45.183Z,7.75
2022-07-31T23:10:13.367Z,7.85
2022-07-31T23:12:41.362Z,7.80
2022-07-31T23:15:09.821Z,8.13
2022-07-31T23:17:37.921Z,7.13
2022-07-31T23:20:08.413Z,7.30
2022-07-31T23:22:36.479Z,7.13
2022-07-31T23:25:05.987Z,7.50
2022-07-31T23:27:34.273Z,6.65
2022-07-31T23:30:02.583Z,7.20
2022-07-31T23:32:30.905Z,7.47
2022-07-31T23:34:59.334Z,6.45
2022-07-31T23:37:28.682Z,6.82
2022-07-31T23:39:56.800Z,6.25
2022-07-31T23:42:39.835Z,6.07
2022-07-31T23:45:11.227Z,5.35
2022-07-31T23:47:45.558Z,5.88
2022-07-31T23:50:15.567Z,5.80
2022-07-31T23:52:45.327Z,5.93
2022-07-31T23:55:14.091Z,6.38
2022-07-31T23:57:42.176Z,5.50
